Aspers, Pennsylvania
Current Conditions -  °F | °C
As of 12:53 PM on Friday 21 Nov 2014 (Local Time) from KTHV Reporting Station
Few Clouds Few Clouds  
Wind Chill: -4°   Ceiling: Unl
Heat Index:   Visibility: 10mi
Dew Point: -14°   Wind: 14mph
Humidity: 32%   Direction: 290°WNW
Pressure: 30.4"   Gusts: NA
Location:  39.98°N, 77.22°W
Report Text: KTHV 211753Z AUTO 29012KT 10SM FEW060 01/M14 A3040 RMK AO2 SLP302 60000 T00111139 10011 21044 51004
Loading
Personal Weather Stations






























Interactive Weather Map New forecast layout! Learn more

10-Day Weather Forecast

Advertisements
Track Severe Weather on mobile